Time;durP1;ratioP1;P1;durP2;ratioP2;P2;SDS_P1;SDS_P2;PMS_P1;PMS_P2;Temp;Humidity;BMP_temperature;BMP_pressure;BME280_temperature;BME280_humidity;BME280_pressure;Samples;Min_cycle;Max_cycle;Signal;HPM_P1;HPM_P2
2023/10/12 00:02:09;;;;;;;;;;;;;;;8.64;75.79;100426.50;5024460;28;20385;-77
2023/10/12 00:04:50;;;;;;;;;;;;;;;8.94;74.05;100421.66;5022362;28;19913;-77
2023/10/12 00:07:16;;;;;;;;;;;;;;;8.99;74.49;100424.34;5010324;28;19953;-77
2023/10/12 00:09:49;;;;;;;;;;;;;;;8.99;76.05;100419.59;5024492;28;19925;-77
2023/10/12 00:12:15;;;;;;;;;;;;;;;9.00;75.22;100414.84;5023683;28;19921;-77
2023/10/12 00:14:41;;;;;;;;;;;;;;;9.10;74.49;100417.47;5022611;28;19925;-77
2023/10/12 00:17:07;;;;;;;;;;;;;;;9.02;76.00;100417.34;5024077;28;19956;-77
2023/10/12 00:19:32;;;;;;;;;;;;;;;8.87;76.90;100413.66;5022261;28;19995;-78
2023/10/12 00:22:00;;;;;;;;;;;;;;;8.99;75.70;100408.44;5016882;28;19938;-77
2023/10/12 00:24:26;;;;;;;;;;;;;;;9.00;76.42;100412.06;5005537;28;20313;-77
2023/10/12 00:26:52;;;;;;;;;;;;;;;8.99;76.46;100402.88;5032642;28;19936;-77
2023/10/12 00:29:18;;;;;;;;;;;;;;;8.63;77.90;100400.56;5016237;28;19922;-78
2023/10/12 00:31:46;;;;;;;;;;;;;;;9.06;76.56;100394.13;5019444;28;19914;-77
2023/10/12 00:34:12;;;;;;;;;;;;;;;9.24;75.28;100392.44;5038756;28;20407;-78
2023/10/12 00:36:40;;;;;;;;;;;;;;;9.43;75.17;100396.34;5024802;28;19917;-77
2023/10/12 00:39:09;;;;;;;;;;;;;;;9.42;74.55;100395.50;5022331;28;19917;-78
2023/10/12 00:41:44;;;;;;;;;;;;;;;9.50;73.19;100389.22;5023380;28;19918;-78
2023/10/12 00:44:12;;;;;;;;;;;;;;;9.47;73.08;100377.81;5039550;28;19914;-78
2023/10/12 00:51:49;;;;;;;;;;;;;;;9.73;73.13;100372.63;5024687;28;19917;-78
2023/10/12 00:54:40;;;;;;;;;;;;;;;9.53;73.57;100371.00;5024390;28;19945;-78
2023/10/12 00:57:06;;;;;;;;;;;;;;;9.47;74.10;100369.44;5009282;28;19986;-78
2023/10/12 00:59:34;;;;;;;;;;;;;;;9.60;74.20;100379.00;5002864;28;19898;-78
2023/10/12 01:02:08;;;;;;;;;;;;;;;9.81;73.33;100379.47;5021986;28;19922;-78
2023/10/12 01:04:34;;;;;;;;;;;;;;;9.95;72.97;100374.72;5024083;28;19921;-77
2023/10/12 01:06:59;;;;;;;;;;;;;;;9.21;75.32;100378.25;5038698;28;19921;-77
2023/10/12 01:09:39;;;;;;;;;;;;;;;9.07;76.57;100373.44;5023239;28;20368;-78
2023/10/12 01:12:06;;;;;;;;;;;;;;;8.74;77.81;100373.34;5022142;28;19970;-77
2023/10/12 01:14:32;;;;;;;;;;;;;;;8.68;78.82;100372.59;5009177;28;19914;-78
2023/10/12 01:19:23;;;;;;;;;;;;;;;8.38;79.67;100368.22;5019046;28;19968;-75
2023/10/12 01:22:04;;;;;;;;;;;;;;;8.47;80.24;100368.41;5008983;28;19957;-75
2023/10/12 01:24:30;;;;;;;;;;;;;;;8.54;79.02;100366.13;5019081;28;20396;-75
2023/10/12 01:26:56;;;;;;;;;;;;;;;8.76;78.56;100364.72;5035198;28;19932;-76
2023/10/12 01:29:22;;;;;;;;;;;;;;;8.72;78.27;100356.09;5020983;28;19921;-76
2023/10/12 01:32:21;;;;;;;;;;;;;;;8.52;79.39;100366.41;5021810;28;19913;-76
2023/10/12 01:34:51;;;;;;;;;;;;;;;8.35;80.06;100364.06;5035869;28;20335;-76
2023/10/12 01:37:26;;;;;;;;;;;;;;;8.38;80.59;100366.25;5020713;28;19921;-76
2023/10/12 01:40:24;;;;;;;;;;;;;;;8.51;80.55;100367.53;5019695;28;19917;-76
2023/10/12 01:48:12;;;;;;;;;;;;;;;8.45;80.35;100368.72;5010139;28;19913;-76
2023/10/12 01:50:37;;;;;;;;;;;;;;;8.64;79.71;100365.97;5017940;28;20471;-76
2023/10/12 01:53:11;;;;;;;;;;;;;;;8.58;79.41;100358.78;5016373;28;20048;-76
2023/10/12 01:55:36;;;;;;;;;;;;;;;8.69;78.42;100365.09;5015596;28;19917;-76
2023/10/12 01:58:04;;;;;;;;;;;;;;;8.80;77.36;100355.41;5015033;28;19984;-76
2023/10/12 02:00:39;;;;;;;;;;;;;;;8.86;77.66;100361.75;5014569;28;19968;-76
2023/10/12 02:05:45;;;;;;;;;;;;;;;8.73;78.15;100366.13;5020303;28;19917;-76
2023/10/12 02:08:11;;;;;;;;;;;;;;;8.75;78.66;100363.84;5020368;28;19972;-76
2023/10/12 02:10:43;;;;;;;;;;;;;;;8.62;79.20;100359.84;5034949;28;19917;-77
2023/10/12 02:13:10;;;;;;;;;;;;;;;8.46;80.46;100355.59;5018407;28;19922;-77
2023/10/12 02:15:37;;;;;;;;;;;;;;;8.40;80.62;100361.25;5020786;28;19917;-77
2023/10/12 02:18:10;;;;;;;;;;;;;;;8.36;81.26;100359.34;5006343;28;19925;-77
2023/10/12 02:20:42;;;;;;;;;;;;;;;8.52;79.85;100357.22;5003465;28;19921;-77
2023/10/12 02:23:11;;;;;;;;;;;;;;;8.47;80.38;100355.28;5019727;28;20300;-77
2023/10/12 02:25:40;;;;;;;;;;;;;;;8.48;79.91;100359.75;5018767;28;20385;-77
2023/10/12 02:28:07;;;;;;;;;;;;;;;8.20;81.71;100364.28;5034018;28;20311;-77
2023/10/12 02:30:32;;;;;;;;;;;;;;;8.39;81.31;100353.16;5018822;28;19918;-76
2023/10/12 02:33:00;;;;;;;;;;;;;;;8.16;82.27;100361.25;5019316;28;20383;-77
2023/10/12 02:35:26;;;;;;;;;;;;;;;7.97;82.85;100363.97;5006290;28;20312;-76
2023/10/12 02:37:52;;;;;;;;;;;;;;;7.98;82.33;100355.31;5015292;28;19975;-77
2023/10/12 02:40:17;;;;;;;;;;;;;;;7.69;83.68;100361.75;5001622;28;20396;-76
2023/10/12 02:42:45;;;;;;;;;;;;;;;7.93;83.12;100352.59;5034888;28;20016;-77
2023/10/12 02:47:42;;;;;;;;;;;;;;;7.85;82.12;100356.03;5020637;28;19917;-77
2023/10/12 02:52:38;;;;;;;;;;;;;;;7.99;81.58;100334.69;5015091;28;19917;-77
2023/10/12 02:55:07;;;;;;;;;;;;;;;7.57;82.75;100341.81;5020067;28;19992;-77
2023/10/12 02:57:33;;;;;;;;;;;;;;;7.67;82.73;100340.91;5020284;28;19925;-77
2023/10/12 03:00:12;;;;;;;;;;;;;;;7.66;82.37;100347.56;5019782;28;19937;-77
2023/10/12 03:02:40;;;;;;;;;;;;;;;7.56;83.33;100337.38;5019868;28;19913;-77
2023/10/12 03:05:07;;;;;;;;;;;;;;;7.48;83.67;100349.97;5018577;28;20424;-77
2023/10/12 03:07:37;;;;;;;;;;;;;;;7.28;84.31;100340.69;5013840;28;19982;-77
2023/10/12 03:10:06;;;;;;;;;;;;;;;7.49;83.83;100337.72;5005374;28;20031;-77
2023/10/12 03:12:35;;;;;;;;;;;;;;;7.67;82.52;100350.06;5019321;28;19917;-76
2023/10/12 03:15:11;;;;;;;;;;;;;;;7.79;82.18;100346.91;5033794;28;19921;-77
2023/10/12 03:17:37;;;;;;;;;;;;;;;7.80;82.21;100354.13;5019427;28;19941;-77
2023/10/12 03:20:17;;;;;;;;;;;;;;;7.75;82.55;100348.59;5019368;28;19917;-77
2023/10/12 03:22:44;;;;;;;;;;;;;;;7.97;81.97;100345.31;5010379;28;19925;-77
2023/10/12 03:25:37;;;;;;;;;;;;;;;8.12;81.41;100349.03;5017607;28;19913;-76
2023/10/12 03:28:11;;;;;;;;;;;;;;;8.21;81.06;100343.63;5019073;28;19914;-76
2023/10/12 03:30:43;;;;;;;;;;;;;;;8.28;80.81;100346.91;5018474;28;19975;-76
2023/10/12 03:33:11;;;;;;;;;;;;;;;8.37;81.12;100344.28;5019960;28;19914;-76
2023/10/12 03:35:51;;;;;;;;;;;;;;;8.47;80.72;100355.28;5017399;28;19940;-76
2023/10/12 03:38:19;;;;;;;;;;;;;;;8.49;80.30;100350.25;5013285;28;19924;-77
2023/10/12 03:40:50;;;;;;;;;;;;;;;8.42;80.86;100346.97;5007801;28;19968;-76
2023/10/12 03:43:28;;;;;;;;;;;;;;;8.42;80.99;100342.25;5020198;28;20392;-78
2023/10/12 03:46:17;;;;;;;;;;;;;;;8.43;81.20;100349.47;5019216;28;20293;-77
2023/10/12 03:51:44;;;;;;;;;;;;;;;7.92;83.60;100352.91;5002519;28;19936;-79
2023/10/12 03:54:55;;;;;;;;;;;;;;;7.74;85.14;100346.94;5032443;28;20312;-78
2023/10/12 03:57:22;;;;;;;;;;;;;;;7.65;86.24;100345.91;5022739;28;19917;-78
2023/10/12 03:59:59;;;;;;;;;;;;;;;7.39;87.42;100347.00;5025843;28;19920;-78
2023/10/12 04:02:25;;;;;;;;;;;;;;;7.28;88.46;100337.91;5027036;28;19914;-78
2023/10/12 04:05:01;;;;;;;;;;;;;;;7.24;89.08;100341.56;5022893;28;19921;-77
2023/10/12 04:08:00;;;;;;;;;;;;;;;7.21;89.17;100339.34;5026186;28;19918;-77
2023/10/12 04:13:49;;;;;;;;;;;;;;;7.19;88.69;100338.81;5011711;28;20013;-78
2023/10/12 04:16:10;;;;;;;;;;;;;;;7.14;88.47;100343.31;5013528;28;19928;-78
2023/10/12 04:18:47;;;;;;;;;;;;;;;7.03;89.07;100333.38;5018519;28;19917;-78
2023/10/12 04:22:04;;;;;;;;;;;;;;;6.88;89.18;100342.66;5022126;28;19930;-78
2023/10/12 04:26:39;;;;;;;;;;;;;;;6.88;89.49;100337.09;5019936;28;20289;-78
2023/10/12 04:29:13;;;;;;;;;;;;;;;6.79;89.29;100347.19;5008852;28;19932;-78
2023/10/12 04:34:10;;;;;;;;;;;;;;;6.86;89.28;100342.13;5018512;28;19961;-76
2023/10/12 04:36:48;;;;;;;;;;;;;;;6.82;89.09;100347.44;5015867;28;20335;-77
2023/10/12 04:39:27;;;;;;;;;;;;;;;6.73;89.67;100340.81;5039568;28;19948;-77
2023/10/12 04:42:04;;;;;;;;;;;;;;;6.71;89.87;100343.91;5025830;28;19925;-77
2023/10/12 04:46:59;;;;;;;;;;;;;;;6.72;89.36;100341.94;4996534;28;20004;-77
2023/10/12 04:54:49;;;;;;;;;;;;;;;6.51;88.84;100332.91;5016411;28;19913;-73
2023/10/12 04:57:15;;;;;;;;;;;;;;;6.53;89.44;100333.44;5015769;28;20377;-72
2023/10/12 05:02:43;;;;;;;;;;;;;;;6.78;88.02;100345.53;5012921;28;19914;-73
2023/10/12 05:07:58;;;;;;;;;;;;;;;6.77;88.11;100344.69;4995283;28;20377;-72
2023/10/12 05:13:05;;;;;;;;;;;;;;;6.97;88.19;100343.72;5009195;28;19918;-72
2023/10/12 05:15:40;;;;;;;;;;;;;;;6.93;88.91;100345.41;5011040;28;20004;-72
2023/10/12 05:18:06;;;;;;;;;;;;;;;6.95;88.56;100347.91;5009169;28;20375;-73
2023/10/12 05:20:31;;;;;;;;;;;;;;;7.07;88.59;100345.59;5010449;28;20390;-73
2023/10/12 05:22:58;;;;;;;;;;;;;;;7.23;88.77;100349.09;5013036;28;19924;-73
2023/10/12 05:25:32;;;;;;;;;;;;;;;7.29;88.37;100350.69;5014095;28;20358;-73
2023/10/12 05:28:14;;;;;;;;;;;;;;;7.48;88.19;100346.34;5009801;28;20372;-73
2023/10/12 05:31:09;;;;;;;;;;;;;;;7.53;88.48;100351.88;5012118;28;19922;-72
2023/10/12 05:33:38;;;;;;;;;;;;;;;7.62;88.82;100347.34;5014497;28;19971;-73
2023/10/12 05:36:10;;;;;;;;;;;;;;;7.79;87.98;100351.63;5005421;28;19917;-72
2023/10/12 05:38:36;;;;;;;;;;;;;;;7.85;87.93;100356.03;5007922;28;19945;-72
2023/10/12 05:41:05;;;;;;;;;;;;;;;8.06;87.20;100356.63;5012013;28;19987;-73
2023/10/12 05:43:33;;;;;;;;;;;;;;;8.27;85.77;100357.22;5012589;28;20110;-73
2023/10/12 05:46:04;;;;;;;;;;;;;;;8.34;84.79;100353.25;5014271;28;19975;-73
2023/10/12 05:48:33;;;;;;;;;;;;;;;8.49;83.92;100355.81;5012348;28;20464;-73
2023/10/12 05:50:58;;;;;;;;;;;;;;;8.46;84.73;100353.63;5014072;28;19930;-71
2023/10/12 05:53:24;;;;;;;;;;;;;;;8.37;85.09;100350.66;5009182;28;19923;-72
2023/10/12 05:55:49;;;;;;;;;;;;;;;8.69;84.08;100360.31;5028787;28;19924;-72
2023/10/12 05:58:15;;;;;;;;;;;;;;;8.74;83.77;100364.16;5013258;28;19996;-69
2023/10/12 06:00:52;;;;;;;;;;;;;;;8.70;83.55;100363.94;5024319;28;20016;-72
2023/10/12 06:03:20;;;;;;;;;;;;;;;8.90;83.17;100367.56;5011844;28;19921;-74
2023/10/12 06:05:46;;;;;;;;;;;;;;;8.87;82.64;100360.63;5013360;28;19991;-72
2023/10/12 06:08:18;;;;;;;;;;;;;;;9.07;82.44;100367.88;5005793;28;20381;-72
2023/10/12 06:10:44;;;;;;;;;;;;;;;9.11;82.00;100366.13;4995926;28;19917;-72
2023/10/12 06:13:12;;;;;;;;;;;;;;;9.20;81.91;100365.44;5010132;28;20446;-72
2023/10/12 06:15:42;;;;;;;;;;;;;;;9.40;81.23;100359.50;5009408;28;19922;-67
2023/10/12 06:18:11;;;;;;;;;;;;;;;9.61;79.43;100372.28;5012631;28;19917;-71
2023/10/12 06:20:47;;;;;;;;;;;;;;;9.74;79.21;100370.66;5009296;28;19956;-74
2023/10/12 06:23:15;;;;;;;;;;;;;;;9.42;80.01;100373.16;5019081;28;19917;-72
2023/10/12 06:25:43;;;;;;;;;;;;;;;9.39;81.57;100363.41;5010563;28;19925;-68
2023/10/12 06:28:17;;;;;;;;;;;;;;;9.89;79.00;100364.75;5011936;28;20301;-70
2023/10/12 06:30:45;;;;;;;;;;;;;;;9.93;78.15;100368.63;5010337;28;19925;-69
2023/10/12 06:33:14;;;;;;;;;;;;;;;10.32;77.07;100360.03;5016666;28;19972;-72
2023/10/12 06:35:58;;;;;;;;;;;;;;;10.32;77.25;100363.66;5012499;28;19921;-70
2023/10/12 06:38:36;;;;;;;;;;;;;;;10.46;76.08;100360.88;5009352;28;20431;-70
2023/10/12 06:41:27;;;;;;;;;;;;;;;10.66;75.54;100358.78;5003763;28;19918;-70
2023/10/12 06:46:15;;;;;;;;;;;;;;;11.00;73.76;100351.00;5015418;28;19924;-71
2023/10/12 06:48:44;;;;;;;;;;;;;;;10.89;73.93;100356.03;5011190;28;19921;-70
2023/10/12 06:51:16;;;;;;;;;;;;;;;11.24;73.49;100367.53;5010324;28;20403;-71
2023/10/12 06:53:51;;;;;;;;;;;;;;;11.55;71.66;100360.31;5012397;28;19922;-70
2023/10/12 06:58:45;;;;;;;;;;;;;;;11.82;70.08;100358.50;5007917;28;19968;-77
2023/10/12 07:01:19;;;;;;;;;;;;;;;11.92;70.16;100364.63;5017245;28;20015;-77
2023/10/12 07:03:50;;;;;;;;;;;;;;;11.97;69.45;100363.66;5004484;28;19918;-77
2023/10/12 07:06:16;;;;;;;;;;;;;;;12.27;68.85;100366.81;5010818;28;20659;-78
2023/10/12 07:08:51;;;;;;;;;;;;;;;12.59;68.38;100361.91;5007414;28;19953;-77
2023/10/12 07:11:20;;;;;;;;;;;;;;;12.48;67.46;100360.56;5008607;28;19929;-75
2023/10/12 07:13:45;;;;;;;;;;;;;;;12.84;66.09;100362.28;5008990;28;19924;-77
2023/10/12 07:16:15;;;;;;;;;;;;;;;12.96;65.55;100361.66;5011985;28;19937;-75
2023/10/12 07:18:43;;;;;;;;;;;;;;;12.87;65.56;100356.03;5011204;28;19922;-78
2023/10/12 07:21:20;;;;;;;;;;;;;;;13.02;65.01;100354.69;5010403;28;19987;-77
2023/10/12 07:23:52;;;;;;;;;;;;;;;13.26;64.61;100350.56;4999435;28;19921;-76
2023/10/12 07:26:17;;;;;;;;;;;;;;;13.16;64.76;100350.94;5010529;28;19918;-74
2023/10/12 07:28:42;;;;;;;;;;;;;;;12.92;65.05;100357.84;5009939;28;19947;-73
2023/10/12 07:36:37;;;;;;;;;;;;;;;13.46;63.37;100354.72;5010493;28;19917;-76
2023/10/12 07:39:22;;;;;;;;;;;;;;;13.49;63.10;100350.41;5006153;28;19925;-76
2023/10/12 07:42:00;;;;;;;;;;;;;;;13.85;61.30;100349.16;5006360;28;19925;-77
2023/10/12 07:44:27;;;;;;;;;;;;;;;13.50;62.69;100349.25;5011889;28;19956;-78
2023/10/12 07:46:56;;;;;;;;;;;;;;;13.90;61.09;100342.53;5008631;28;20040;-79
2023/10/12 07:49:29;;;;;;;;;;;;;;;14.24;60.22;100340.72;4998857;28;19925;-78
2023/10/12 07:54:58;;;;;;;;;;;;;;;14.18;58.46;100334.47;4996911;28;19924;-71
2023/10/12 07:57:29;;;;;;;;;;;;;;;14.21;57.98;100337.75;5015520;28;19925;-70
2023/10/12 07:59:59;;;;;;;;;;;;;;;14.83;57.84;100335.41;5011026;28;19917;-73
2023/10/12 08:03:05;;;;;;;;;;;;;;;15.11;56.58;100337.69;5009728;28;19918;-75
2023/10/12 08:21:10;;;;;;;;;;;;;;;15.26;54.09;100319.31;5009256;28;19970;-72
2023/10/12 08:23:37;;;;;;;;;;;;;;;15.22;54.85;100305.09;5009298;28;19917;-73
2023/10/12 08:26:03;;;;;;;;;;;;;;;15.46;54.02;100303.53;5011665;28;20000;-71
2023/10/12 08:28:36;;;;;;;;;;;;;;;15.66;53.67;100300.97;5008305;28;19968;-74
2023/10/12 08:31:15;;;;;;;;;;;;;;;16.21;53.18;100309.31;5009951;28;19927;-74
2023/10/12 08:33:49;;;;;;;;;;;;;;;16.42;52.20;100298.69;5008689;28;19928;-74
2023/10/12 08:38:40;;;;;;;;;;;;;;;16.67;50.36;100290.19;5010390;28;19959;-73
2023/10/12 08:43:47;;;;;;;;;;;;;;;16.98;50.82;100285.03;5011866;28;19921;-74
2023/10/12 08:46:19;;;;;;;;;;;;;;;17.26;49.68;100276.56;5010698;28;19952;-74
2023/10/12 08:48:54;;;;;;;;;;;;;;;16.79;49.44;100269.53;5009218;28;19928;-80
2023/10/12 08:51:23;;;;;;;;;;;;;;;17.14;49.85;100267.31;5007533;28;19936;-78
2023/10/12 08:53:49;;;;;;;;;;;;;;;17.22;48.55;100260.69;5009236;28;20008;-79
2023/10/12 08:56:15;;;;;;;;;;;;;;;17.47;49.50;100254.91;5002653;28;20012;-79
2023/10/12 08:58:50;;;;;;;;;;;;;;;17.68;49.06;100255.47;5010200;28;20376;-79
2023/10/12 09:01:31;;;;;;;;;;;;;;;18.04;47.70;100254.72;5026028;28;20375;-76
2023/10/12 09:04:03;;;;;;;;;;;;;;;18.18;46.00;100248.59;5003800;28;19918;-80
2023/10/12 09:09:00;;;;;;;;;;;;;;;17.82;46.53;100243.69;5004299;28;19921;-78
2023/10/12 09:11:33;;;;;;;;;;;;;;;17.87;46.14;100241.78;5007296;28;19932;-76
2023/10/12 09:13:58;;;;;;;;;;;;;;;17.51;47.93;100239.69;5025532;28;19925;-81
2023/10/12 09:16:26;;;;;;;;;;;;;;;17.88;48.98;100230.06;5010577;28;19921;-80
2023/10/12 09:18:57;;;;;;;;;;;;;;;18.05;47.99;100231.72;5010160;28;19933;-80
2023/10/12 09:23:58;;;;;;;;;;;;;;;18.28;47.73;100222.56;4999502;28;20034;-74
2023/10/12 09:26:38;;;;;;;;;;;;;;;18.43;47.26;100218.03;5019656;28;19922;-81
2023/10/12 09:36:28;;;;;;;;;;;;;;;19.15;45.60;100198.84;5009847;28;19925;-74
2023/10/12 09:39:00;;;;;;;;;;;;;;;18.88;44.22;100200.72;5010966;28;19932;-73
2023/10/12 09:41:29;;;;;;;;;;;;;;;18.60;44.80;100191.28;5002250;28;19964;-74
2023/10/12 09:43:58;;;;;;;;;;;;;;;18.05;45.70;100191.28;5005545;28;20000;-73
2023/10/12 09:46:27;;;;;;;;;;;;;;;18.42;45.30;100185.25;5020877;28;19922;-73
2023/10/12 09:48:58;;;;;;;;;;;;;;;18.41;45.40;100182.78;5005003;28;19922;-74
2023/10/12 09:51:25;;;;;;;;;;;;;;;18.93;44.47;100181.41;5008441;28;19926;-72
2023/10/12 09:53:58;;;;;;;;;;;;;;;19.38;44.78;100180.25;5006116;28;19921;-73
2023/10/12 09:56:34;;;;;;;;;;;;;;;19.06;43.72;100167.09;5021811;28;19921;-73
2023/10/12 09:59:13;;;;;;;;;;;;;;;18.57;45.01;100162.88;5005070;28;19924;-74
2023/10/12 10:06:51;;;;;;;;;;;;;;;19.70;44.49;100149.56;5006845;28;19924;-72
2023/10/12 10:09:36;;;;;;;;;;;;;;;19.85;43.41;100144.09;5025092;28;20473;-73
2023/10/12 10:12:04;;;;;;;;;;;;;;;20.07;44.10;100139.56;5011766;28;19922;-73
2023/10/12 10:14:34;;;;;;;;;;;;;;;20.25;42.67;100139.03;5008753;28;20007;-74
2023/10/12 10:17:00;;;;;;;;;;;;;;;20.49;41.36;100134.84;5009170;28;19924;-73
2023/10/12 10:19:29;;;;;;;;;;;;;;;20.57;41.86;100125.22;5009050;28;20350;-73
2023/10/12 10:22:16;;;;;;;;;;;;;;;20.76;40.62;100123.41;5012166;28;19914;-73
2023/10/12 10:24:45;;;;;;;;;;;;;;;20.70;41.17;100119.28;5017091;28;20362;-74
2023/10/12 10:27:12;;;;;;;;;;;;;;;20.58;41.91;100118.31;5010192;28;20316;-73
2023/10/12 10:29:44;;;;;;;;;;;;;;;20.95;40.91;100107.38;5012813;28;19918;-73
2023/10/12 10:32:14;;;;;;;;;;;;;;;20.79;41.16;100099.06;5004987;28;19918;-73
2023/10/12 10:34:40;;;;;;;;;;;;;;;20.98;40.73;100089.53;5011269;28;19936;-72
2023/10/12 10:37:11;;;;;;;;;;;;;;;21.08;41.01;100096.53;5008394;28;19979;-73
2023/10/12 10:39:38;;;;;;;;;;;;;;;21.28;40.41;100088.59;5010668;28;19917;-74
2023/10/12 10:42:08;;;;;;;;;;;;;;;21.53;38.93;100085.91;5011655;28;19968;-74
2023/10/12 10:44:45;;;;;;;;;;;;;;;21.71;38.80;100080.38;5010559;28;20300;-73
2023/10/12 10:47:15;;;;;;;;;;;;;;;21.44;38.93;100079.78;5006991;28;20075;-73
2023/10/12 10:49:45;;;;;;;;;;;;;;;20.99;39.39;100062.72;5007681;28;20408;-73
2023/10/12 10:52:14;;;;;;;;;;;;;;;20.90;39.76;100060.22;5009342;28;19940;-73
2023/10/12 10:54:41;;;;;;;;;;;;;;;21.03;39.36;100053.03;5007233;28;20381;-72
2023/10/12 10:57:17;;;;;;;;;;;;;;;21.08;39.58;100045.34;5004496;28;19921;-73
2023/10/12 10:59:45;;;;;;;;;;;;;;;21.29;40.35;100048.34;5008894;28;19913;-73
2023/10/12 11:02:14;;;;;;;;;;;;;;;21.62;39.80;100042.91;5005771;28;19925;-73
2023/10/12 11:07:11;;;;;;;;;;;;;;;21.87;38.21;100020.28;5007913;28;20331;-72
2023/10/12 11:12:14;;;;;;;;;;;;;;;21.93;39.12;100034.16;5007890;28;20499;-73
2023/10/12 11:14:43;;;;;;;;;;;;;;;21.83;39.17;100028.00;5010188;28;19932;-73
2023/10/12 11:17:08;;;;;;;;;;;;;;;21.86;38.41;100029.25;5010890;28;20442;-73
2023/10/12 11:19:36;;;;;;;;;;;;;;;22.07;39.01;100017.13;5025360;28;20015;-73
2023/10/12 11:22:01;;;;;;;;;;;;;;;21.73;39.53;100020.22;5009734;28;19921;-73
2023/10/12 11:24:27;;;;;;;;;;;;;;;21.86;39.72;100012.16;5005905;28;19950;-72
2023/10/12 11:26:52;;;;;;;;;;;;;;;22.03;38.94;100007.75;5009996;28;19924;-72
2023/10/12 11:29:17;;;;;;;;;;;;;;;22.05;39.14;100007.34;5008448;28;20004;-72
2023/10/12 11:31:46;;;;;;;;;;;;;;;21.97;39.17;100001.63;5008999;28;19969;-72
2023/10/12 11:34:23;;;;;;;;;;;;;;;22.08;38.88;99997.97;5010896;28;19940;-72
2023/10/12 11:36:55;;;;;;;;;;;;;;;21.27;38.60;99990.25;5005908;28;19924;-72
2023/10/12 11:39:21;;;;;;;;;;;;;;;21.26;39.34;99992.25;5006562;28;20001;-72
2023/10/12 11:42:03;;;;;;;;;;;;;;;21.76;38.76;99984.44;5006370;28;20376;-72
2023/10/12 11:44:33;;;;;;;;;;;;;;;22.06;38.71;99980.47;5002913;28;20629;-72
2023/10/12 11:47:00;;;;;;;;;;;;;;;22.36;38.12;99976.50;5005238;28;20292;-72
2023/10/12 11:49:26;;;;;;;;;;;;;;;22.11;37.70;99972.38;5006150;28;19918;-72
2023/10/12 11:51:52;;;;;;;;;;;;;;;22.16;38.57;99974.00;5005328;28;19928;-72
2023/10/12 11:54:21;;;;;;;;;;;;;;;22.44;37.40;99975.28;5025416;28;19921;-72
2023/10/12 11:56:49;;;;;;;;;;;;;;;22.80;37.57;99971.69;5021019;28;19918;-72
2023/10/12 11:59:22;;;;;;;;;;;;;;;22.41;37.81;99964.69;5004405;28;19918;-72
2023/10/12 12:01:51;;;;;;;;;;;;;;;22.28;38.42;99958.59;5007699;28;19923;-72
2023/10/12 12:04:24;;;;;;;;;;;;;;;22.60;37.57;99962.72;5006037;28;19922;-72
2023/10/12 12:06:50;;;;;;;;;;;;;;;22.82;37.79;99958.66;5005466;28;20313;-72
2023/10/12 12:09:17;;;;;;;;;;;;;;;22.75;36.53;99952.97;5007585;28;20324;-72
2023/10/12 12:11:42;;;;;;;;;;;;;;;22.71;37.11;99955.81;5007790;28;19932;-72
2023/10/12 12:14:08;;;;;;;;;;;;;;;23.03;37.08;99939.91;5004979;28;20320;-72
2023/10/12 12:16:34;;;;;;;;;;;;;;;22.88;36.99;99939.13;5020770;28;19926;-72
2023/10/12 12:19:00;;;;;;;;;;;;;;;22.91;37.25;99941.16;5002291;28;19932;-72
2023/10/12 12:21:33;;;;;;;;;;;;;;;22.67;37.15;99932.19;5005573;28;19921;-72
2023/10/12 12:27:03;;;;;;;;;;;;;;;22.93;36.59;99929.34;4983109;28;19921;-73
2023/10/12 12:29:28;;;;;;;;;;;;;;;22.88;36.62;99927.72;4987856;28;19921;-71
2023/10/12 12:31:54;;;;;;;;;;;;;;;23.00;36.64;99920.75;4983761;28;20399;-72
2023/10/12 12:34:38;;;;;;;;;;;;;;;23.26;35.46;99915.81;5004682;28;19932;-72
2023/10/12 12:37:10;;;;;;;;;;;;;;;23.46;35.44;99909.66;5004887;28;19959;-76
2023/10/12 12:39:35;;;;;;;;;;;;;;;23.38;35.46;99903.97;5005154;28;19928;-76
2023/10/12 12:42:01;;;;;;;;;;;;;;;23.23;36.22;99905.22;5007344;28;20411;-76
2023/10/12 12:44:26;;;;;;;;;;;;;;;23.08;36.21;99895.88;5021019;28;20351;-80
2023/10/12 12:46:51;;;;;;;;;;;;;;;23.32;35.66;99899.94;5006062;28;19929;-73
2023/10/12 12:49:17;;;;;;;;;;;;;;;23.02;36.45;99894.69;5002551;28;19972;-75
2023/10/12 12:51:43;;;;;;;;;;;;;;;23.11;36.26;99904.44;5000755;28;20640;-72
2023/10/12 12:54:08;;;;;;;;;;;;;;;23.31;35.39;99891.78;5003799;28;19917;-72
2023/10/12 12:56:36;;;;;;;;;;;;;;;23.37;35.77;99885.22;5005320;28;19921;-73
2023/10/12 12:59:04;;;;;;;;;;;;;;;23.59;35.61;99876.59;5019838;28;19925;-71
2023/10/12 13:01:31;;;;;;;;;;;;;;;23.41;35.72;99877.50;5004321;28;19968;-71
2023/10/12 13:03:56;;;;;;;;;;;;;;;23.57;35.40;99879.03;5002289;28;20344;-72
2023/10/12 13:06:22;;;;;;;;;;;;;;;23.77;34.96;99873.63;5005143;28;20039;-71
2023/10/12 13:08:48;;;;;;;;;;;;;;;23.74;35.17;99865.09;5003742;28;19933;-70
2023/10/12 13:11:20;;;;;;;;;;;;;;;23.58;35.39;99866.41;5008589;28;19964;-71
2023/10/12 13:13:47;;;;;;;;;;;;;;;23.40;35.81;99860.78;5007467;28;20012;-71
2023/10/12 13:16:13;;;;;;;;;;;;;;;23.73;35.09;99854.91;5010026;28;19929;-71
2023/10/12 13:18:38;;;;;;;;;;;;;;;24.03;34.30;99850.66;5012478;28;19975;-67
2023/10/12 13:21:07;;;;;;;;;;;;;;;24.17;34.14;99855.47;5014404;28;20004;-69
2023/10/12 13:23:33;;;;;;;;;;;;;;;23.93;34.29;99853.16;5013653;28;19914;-71
2023/10/12 13:26:08;;;;;;;;;;;;;;;23.82;34.57;99852.41;5014723;28;19924;-71
2023/10/12 13:28:34;;;;;;;;;;;;;;;24.07;34.51;99851.47;5013146;28;19913;-71
2023/10/12 13:30:59;;;;;;;;;;;;;;;24.02;34.53;99849.03;5012642;28;19928;-72
2023/10/12 13:33:27;;;;;;;;;;;;;;;23.71;34.69;99846.72;5014229;28;19960;-72
2023/10/12 13:35:55;;;;;;;;;;;;;;;23.93;34.49;99846.59;5013496;28;20388;-72
2023/10/12 13:38:20;;;;;;;;;;;;;;;24.13;33.95;99837.53;5007042;28;19922;-72
2023/10/12 13:40:51;;;;;;;;;;;;;;;24.24;33.74;99839.06;5008957;28;19917;-72
2023/10/12 13:43:21;;;;;;;;;;;;;;;24.38;33.41;99837.34;5029743;28;19975;-70
2023/10/12 13:45:52;;;;;;;;;;;;;;;23.80;34.12;99832.81;5011330;28;20358;-70
2023/10/12 13:48:21;;;;;;;;;;;;;;;23.76;34.09;99828.34;5011346;28;19965;-70
2023/10/12 13:50:53;;;;;;;;;;;;;;;23.76;33.90;99825.50;5005593;28;20367;-70
2023/10/12 13:53:24;;;;;;;;;;;;;;;23.71;34.15;99821.03;5011621;28;19929;-72
2023/10/12 13:55:50;;;;;;;;;;;;;;;23.65;34.42;99826.41;5011792;28;19925;-71
2023/10/12 13:58:15;;;;;;;;;;;;;;;23.62;34.58;99812.94;5028204;28;19917;-69
2023/10/12 14:00:41;;;;;;;;;;;;;;;23.37;35.06;99816.75;5008060;28;19952;-70
2023/10/12 14:03:13;;;;;;;;;;;;;;;23.55;34.61;99821.56;5011899;28;20333;-69
2023/10/12 14:05:40;;;;;;;;;;;;;;;23.55;34.87;99816.66;5007399;28;19953;-71
2023/10/12 14:08:08;;;;;;;;;;;;;;;23.48;34.83;99808.16;5020720;28;19918;-73
2023/10/12 14:10:37;;;;;;;;;;;;;;;23.73;34.07;99807.19;5012531;28;20396;-72
2023/10/12 14:13:02;;;;;;;;;;;;;;;23.68;34.35;99810.47;5007784;28;20019;-72
2023/10/12 14:15:28;;;;;;;;;;;;;;;23.54;34.73;99808.53;5008754;28;20412;-72
2023/10/12 14:17:58;;;;;;;;;;;;;;;23.51;34.86;99804.44;5012203;28;19918;-72
2023/10/12 14:20:28;;;;;;;;;;;;;;;23.37;35.16;99805.31;5011499;28;19914;-72
2023/10/12 14:23:05;;;;;;;;;;;;;;;23.39;35.23;99802.06;5011843;28;19925;-72
2023/10/12 14:25:33;;;;;;;;;;;;;;;23.48;34.69;99804.47;5011325;28;19925;-72
2023/10/12 14:28:05;;;;;;;;;;;;;;;23.41;34.99;99797.56;5009698;28;19971;-72
2023/10/12 14:30:30;;;;;;;;;;;;;;;23.22;35.08;99795.19;5006188;28;19922;-69
2023/10/12 14:32:56;;;;;;;;;;;;;;;23.09;35.21;99789.13;5012893;28;19914;-70
2023/10/12 14:35:25;;;;;;;;;;;;;;;23.09;35.30;99789.13;5013246;28;19980;-70
2023/10/12 14:37:50;;;;;;;;;;;;;;;22.97;35.92;99785.50;5012289;28;20387;-70
2023/10/12 14:40:19;;;;;;;;;;;;;;;22.90;36.12;99793.25;5028396;28;19961;-70
2023/10/12 14:42:45;;;;;;;;;;;;;;;22.81;35.94;99788.81;5011966;28;20437;-70
2023/10/12 14:45:15;;;;;;;;;;;;;;;22.84;36.07;99773.72;5028370;28;19948;-70
2023/10/12 14:47:41;;;;;;;;;;;;;;;22.77;36.06;99775.78;5011336;28;19917;-72